Accueil
METAR-TAF:

METAR-TAF

Aéroports :

Aéroport international de Larnaca

Larnaca, Chypre

latitude: 34-53N, longitude: 033-38E, altitude: 2 m

Observation

Le bulletin a été fait il y a 18 minutes, à 07:00 UTC
Vent 4 kt de nord/nord-ouest
Température 14°C
Humidité 88%
Pression 1018 hPa
Visibilité 10 km ou plus
Quelques nuages à une hauteur de 2500 ft, Cumulus congestus.

METAR: LCLK 230700Z 34004KT 9999 FEW025TCU 14/12 Q1018 NOSIG

Heure: 09:18 (07:18 UTC)

Prévision

Le bulletin a été fait il y a 1 heure et 48 minutes, à 05:30 UTC
Prévision valable du 23 à 06 UTC au 24 à 06 UTC
Vent 6 kt de nord/nord-ouest
Visibilité 10 km ou plus
Quelques nuages à une hauteur de 2000 ft
Evoluant progressivement
du 23 à 08 UTC au 23 à 12 UTC
Vent 10 kt de est

TAF: LCLK 230530Z 2306/2406 33006KT 9999 FEW020 BECMG 2308/2312 08010KT

Observations et prévisions météorologiques de plus de 4000 aéroports (messages METAR et TAF).

Les stations disponibles sont représentées par des disques jaunes et rouges sur la carte.

Passer la souris dessus pour voir le nom de la station.

Cliquer dessus pour voir les observations et prévisions météorologiques.

Pour changer de carte: cliquez sur les boutons verts avec une croix noire pour zoomer, sur le bouton vert avec un tiret pour effectuer un zoom arrière, ou sur les flèches vertes pour les cartes adjacentes.


METAR-TAF: